sensor_id;sensor_type;location;lat;lon;timestamp;temperature;humidity
47779;DHT22;33538;48.432;11.350;2023-08-06T00:00:26;18.10;97.90
47779;DHT22;33538;48.432;11.350;2023-08-06T00:02:52;18.00;98.00
47779;DHT22;33538;48.432;11.350;2023-08-06T00:05:19;18.00;97.90
47779;DHT22;33538;48.432;11.350;2023-08-06T00:07:46;18.00;98.20
47779;DHT22;33538;48.432;11.350;2023-08-06T00:10:13;18.00;97.90
47779;DHT22;33538;48.432;11.350;2023-08-06T00:12:40;18.00;97.90
47779;DHT22;33538;48.432;11.350;2023-08-06T00:15:09;17.90;97.80
47779;DHT22;33538;48.432;11.350;2023-08-06T00:17:36;17.90;98.10
47779;DHT22;33538;48.432;11.350;2023-08-06T00:20:05;17.90;97.90
47779;DHT22;33538;48.432;11.350;2023-08-06T00:22:32;17.90;98.10
47779;DHT22;33538;48.432;11.350;2023-08-06T00:24:59;17.90;98.10
47779;DHT22;33538;48.432;11.350;2023-08-06T00:27:26;17.90;98.00
47779;DHT22;33538;48.432;11.350;2023-08-06T00:29:53;17.90;98.00
47779;DHT22;33538;48.432;11.350;2023-08-06T00:32:21;17.80;97.90
47779;DHT22;33538;48.432;11.350;2023-08-06T00:34:48;17.90;97.90
47779;DHT22;33538;48.432;11.350;2023-08-06T00:37:15;17.80;97.80
47779;DHT22;33538;48.432;11.350;2023-08-06T00:39:42;17.90;97.70
47779;DHT22;33538;48.432;11.350;2023-08-06T00:42:09;17.90;97.70
47779;DHT22;33538;48.432;11.350;2023-08-06T00:44:36;17.90;98.00
47779;DHT22;33538;48.432;11.350;2023-08-06T00:47:03;17.80;97.90
47779;DHT22;33538;48.432;11.350;2023-08-06T00:49:32;17.80;98.00
47779;DHT22;33538;48.432;11.350;2023-08-06T00:52:00;17.80;98.00
47779;DHT22;33538;48.432;11.350;2023-08-06T00:54:27;17.80;98.10
47779;DHT22;33538;48.432;11.350;2023-08-06T00:56:54;17.80;98.30
47779;DHT22;33538;48.432;11.350;2023-08-06T00:59:21;17.80;98.10
47779;DHT22;33538;48.432;11.350;2023-08-06T01:01:49;17.90;97.90
47779;DHT22;33538;48.432;11.350;2023-08-06T01:04:16;17.90;98.30
47779;DHT22;33538;48.432;11.350;2023-08-06T01:06:48;17.80;98.40
47779;DHT22;33538;48.432;11.350;2023-08-06T01:09:28;17.80;98.40
47779;DHT22;33538;48.432;11.350;2023-08-06T01:12:05;17.70;98.60
47779;DHT22;33538;48.432;11.350;2023-08-06T01:14:41;17.80;98.60
47779;DHT22;33538;48.432;11.350;2023-08-06T01:17:12;17.80;98.60
47779;DHT22;33538;48.432;11.350;2023-08-06T01:19:40;17.80;98.80
47779;DHT22;33538;48.432;11.350;2023-08-06T01:22:08;17.70;98.80
47779;DHT22;33538;48.432;11.350;2023-08-06T01:24:35;17.70;99.10
47779;DHT22;33538;48.432;11.350;2023-08-06T01:27:06;17.70;99.30
47779;DHT22;33538;48.432;11.350;2023-08-06T01:29:39;17.70;99.50
47779;DHT22;33538;48.432;11.350;2023-08-06T01:32:09;17.70;99.50
47779;DHT22;33538;48.432;11.350;2023-08-06T01:34:38;17.70;99.50
47779;DHT22;33538;48.432;11.350;2023-08-06T01:37:07;17.70;99.30
47779;DHT22;33538;48.432;11.350;2023-08-06T01:39:34;17.70;99.20
47779;DHT22;33538;48.432;11.350;2023-08-06T01:42:01;17.70;99.40
47779;DHT22;33538;48.432;11.350;2023-08-06T01:44:28;17.70;99.40
47779;DHT22;33538;48.432;11.350;2023-08-06T01:46:55;17.70;99.20
47779;DHT22;33538;48.432;11.350;2023-08-06T01:49:21;17.70;99.00
47779;DHT22;33538;48.432;11.350;2023-08-06T01:51:48;17.70;98.90
47779;DHT22;33538;48.432;11.350;2023-08-06T01:54:17;17.70;99.00
47779;DHT22;33538;48.432;11.350;2023-08-06T01:56:44;17.70;98.90
47779;DHT22;33538;48.432;11.350;2023-08-06T01:59:10;17.60;98.90
47779;DHT22;33538;48.432;11.350;2023-08-06T02:01:37;17.60;98.80
47779;DHT22;33538;48.432;11.350;2023-08-06T02:04:04;17.60;99.10
47779;DHT22;33538;48.432;11.350;2023-08-06T02:06:31;17.60;99.20
47779;DHT22;33538;48.432;11.350;2023-08-06T02:08:58;17.60;99.10
47779;DHT22;33538;48.432;11.350;2023-08-06T02:11:26;17.50;99.10
47779;DHT22;33538;48.432;11.350;2023-08-06T02:13:53;17.50;99.10
47779;DHT22;33538;48.432;11.350;2023-08-06T02:16:19;17.50;99.10
47779;DHT22;33538;48.432;11.350;2023-08-06T02:18:46;17.50;98.90
47779;DHT22;33538;48.432;11.350;2023-08-06T02:21:13;17.50;99.00
47779;DHT22;33538;48.432;11.350;2023-08-06T02:23:40;17.50;99.20
47779;DHT22;33538;48.432;11.350;2023-08-06T02:26:07;17.50;99.00
47779;DHT22;33538;48.432;11.350;2023-08-06T02:28:35;17.50;99.00
47779;DHT22;33538;48.432;11.350;2023-08-06T02:31:02;17.50;99.00
47779;DHT22;33538;48.432;11.350;2023-08-06T02:33:28;17.50;98.80
47779;DHT22;33538;48.432;11.350;2023-08-06T02:36:02;17.50;98.70
47779;DHT22;33538;48.432;11.350;2023-08-06T02:38:29;17.50;98.70
47779;DHT22;33538;48.432;11.350;2023-08-06T02:40:56;17.50;98.60
47779;DHT22;33538;48.432;11.350;2023-08-06T02:43:23;17.50;98.30
47779;DHT22;33538;48.432;11.350;2023-08-06T02:45:51;17.50;98.10
47779;DHT22;33538;48.432;11.350;2023-08-06T02:48:18;17.50;98.30
47779;DHT22;33538;48.432;11.350;2023-08-06T02:50:45;17.40;98.50
47779;DHT22;33538;48.432;11.350;2023-08-06T02:53:12;17.50;98.50
47779;DHT22;33538;48.432;11.350;2023-08-06T02:55:45;17.50;97.90
47779;DHT22;33538;48.432;11.350;2023-08-06T02:58:12;17.50;98.30
47779;DHT22;33538;48.432;11.350;2023-08-06T03:00:39;17.50;98.30
47779;DHT22;33538;48.432;11.350;2023-08-06T03:03:07;17.50;98.00
47779;DHT22;33538;48.432;11.350;2023-08-06T03:05:34;17.40;98.10
47779;DHT22;33538;48.432;11.350;2023-08-06T03:08:01;17.30;98.20
47779;DHT22;33538;48.432;11.350;2023-08-06T03:10:27;17.30;98.20
47779;DHT22;33538;48.432;11.350;2023-08-06T03:12:54;17.30;98.10
47779;DHT22;33538;48.432;11.350;2023-08-06T03:15:21;17.30;97.80
47779;DHT22;33538;48.432;11.350;2023-08-06T03:17:48;17.30;97.90
47779;DHT22;33538;48.432;11.350;2023-08-06T03:20:16;17.30;97.90
47779;DHT22;33538;48.432;11.350;2023-08-06T03:22:43;17.30;98.00
47779;DHT22;33538;48.432;11.350;2023-08-06T03:25:10;17.30;97.80
47779;DHT22;33538;48.432;11.350;2023-08-06T03:27:36;17.20;97.70
47779;DHT22;33538;48.432;11.350;2023-08-06T03:30:04;17.30;97.60
47779;DHT22;33538;48.432;11.350;2023-08-06T03:32:31;17.30;97.70
47779;DHT22;33538;48.432;11.350;2023-08-06T03:34:58;17.20;97.60
47779;DHT22;33538;48.432;11.350;2023-08-06T03:37:26;17.20;97.60
47779;DHT22;33538;48.432;11.350;2023-08-06T03:39:52;17.20;97.70
47779;DHT22;33538;48.432;11.350;2023-08-06T03:42:19;17.20;97.70
47779;DHT22;33538;48.432;11.350;2023-08-06T03:44:46;17.20;97.50
47779;DHT22;33538;48.432;11.350;2023-08-06T03:47:13;17.20;97.30
47779;DHT22;33538;48.432;11.350;2023-08-06T03:49:40;17.10;97.20
47779;DHT22;33538;48.432;11.350;2023-08-06T03:52:07;17.10;97.30
47779;DHT22;33538;48.432;11.350;2023-08-06T03:54:35;17.10;97.40
47779;DHT22;33538;48.432;11.350;2023-08-06T03:57:02;17.10;97.50
47779;DHT22;33538;48.432;11.350;2023-08-06T03:59:29;17.00;97.60
47779;DHT22;33538;48.432;11.350;2023-08-06T04:01:56;17.10;97.40
47779;DHT22;33538;48.432;11.350;2023-08-06T04:04:22;17.00;97.20
47779;DHT22;33538;48.432;11.350;2023-08-06T04:06:49;17.00;97.10
47779;DHT22;33538;48.432;11.350;2023-08-06T04:09:16;17.00;97.50
47779;DHT22;33538;48.432;11.350;2023-08-06T04:11:44;17.10;97.40
47779;DHT22;33538;48.432;11.350;2023-08-06T04:14:11;17.00;97.30
47779;DHT22;33538;48.432;11.350;2023-08-06T04:16:38;17.00;97.40
47779;DHT22;33538;48.432;11.350;2023-08-06T04:19:05;17.00;97.50
47779;DHT22;33538;48.432;11.350;2023-08-06T04:21:31;17.10;97.30
47779;DHT22;33538;48.432;11.350;2023-08-06T04:23:59;17.20;97.00
47779;DHT22;33538;48.432;11.350;2023-08-06T04:26:26;17.10;97.00
47779;DHT22;33538;48.432;11.350;2023-08-06T04:28:54;17.10;97.00
47779;DHT22;33538;48.432;11.350;2023-08-06T04:31:21;17.10;97.10
47779;DHT22;33538;48.432;11.350;2023-08-06T04:33:48;17.10;97.20
47779;DHT22;33538;48.432;11.350;2023-08-06T04:36:15;17.10;97.20
47779;DHT22;33538;48.432;11.350;2023-08-06T04:38:41;17.10;97.20
47779;DHT22;33538;48.432;11.350;2023-08-06T04:41:08;17.10;97.20
47779;DHT22;33538;48.432;11.350;2023-08-06T04:43:35;17.20;96.80
47779;DHT22;33538;48.432;11.350;2023-08-06T04:46:03;17.20;96.90
47779;DHT22;33538;48.432;11.350;2023-08-06T04:48:30;17.20;96.90
47779;DHT22;33538;48.432;11.350;2023-08-06T04:50:57;17.10;97.10
47779;DHT22;33538;48.432;11.350;2023-08-06T04:53:24;17.10;97.50
47779;DHT22;33538;48.432;11.350;2023-08-06T04:55:50;17.10;97.70
47779;DHT22;33538;48.432;11.350;2023-08-06T04:58:17;17.10;97.90
47779;DHT22;33538;48.432;11.350;2023-08-06T05:00:44;17.10;97.90
47779;DHT22;33538;48.432;11.350;2023-08-06T05:03:12;17.10;97.80
47779;DHT22;33538;48.432;11.350;2023-08-06T05:05:40;17.10;97.80
47779;DHT22;33538;48.432;11.350;2023-08-06T05:08:07;17.10;97.80
47779;DHT22;33538;48.432;11.350;2023-08-06T05:10:33;17.10;97.70
47779;DHT22;33538;48.432;11.350;2023-08-06T05:13:00;17.10;97.70
47779;DHT22;33538;48.432;11.350;2023-08-06T05:15:27;17.10;97.80
47779;DHT22;33538;48.432;11.350;2023-08-06T05:17:54;17.10;97.90
47779;DHT22;33538;48.432;11.350;2023-08-06T05:20:22;17.10;97.70
47779;DHT22;33538;48.432;11.350;2023-08-06T05:22:49;17.10;97.70
47779;DHT22;33538;48.432;11.350;2023-08-06T05:25:16;17.10;97.80
47779;DHT22;33538;48.432;11.350;2023-08-06T05:27:42;17.10;97.80
47779;DHT22;33538;48.432;11.350;2023-08-06T05:30:10;17.10;97.90
47779;DHT22;33538;48.432;11.350;2023-08-06T05:32:37;17.10;98.20
47779;DHT22;33538;48.432;11.350;2023-08-06T05:35:05;17.10;98.10
47779;DHT22;33538;48.432;11.350;2023-08-06T05:37:33;17.10;98.10
47779;DHT22;33538;48.432;11.350;2023-08-06T05:40:00;17.10;98.10
47779;DHT22;33538;48.432;11.350;2023-08-06T05:42:26;17.10;98.30
47779;DHT22;33538;48.432;11.350;2023-08-06T05:44:53;17.10;98.50
47779;DHT22;33538;48.432;11.350;2023-08-06T05:47:20;17.10;98.20
47779;DHT22;33538;48.432;11.350;2023-08-06T05:49:47;17.20;97.90
47779;DHT22;33538;48.432;11.350;2023-08-06T05:52:14;17.20;98.20
47779;DHT22;33538;48.432;11.350;2023-08-06T05:54:42;17.10;98.50
47779;DHT22;33538;48.432;11.350;2023-08-06T05:57:09;17.10;98.60
47779;DHT22;33538;48.432;11.350;2023-08-06T05:59:35;17.20;98.30
47779;DHT22;33538;48.432;11.350;2023-08-06T06:02:02;17.20;98.20
47779;DHT22;33538;48.432;11.350;2023-08-06T06:04:29;17.20;98.40
47779;DHT22;33538;48.432;11.350;2023-08-06T06:06:56;17.20;98.20
47779;DHT22;33538;48.432;11.350;2023-08-06T06:09:23;17.20;98.00
47779;DHT22;33538;48.432;11.350;2023-08-06T06:11:51;17.30;97.80
47779;DHT22;33538;48.432;11.350;2023-08-06T06:14:19;17.30;97.50
47779;DHT22;33538;48.432;11.350;2023-08-06T06:16:46;17.30;97.50
47779;DHT22;33538;48.432;11.350;2023-08-06T06:19:13;17.30;97.80
47779;DHT22;33538;48.432;11.350;2023-08-06T06:21:40;17.30;97.90
47779;DHT22;33538;48.432;11.350;2023-08-06T06:24:07;17.30;98.10
47779;DHT22;33538;48.432;11.350;2023-08-06T06:26:33;17.30;97.70
47779;DHT22;33538;48.432;11.350;2023-08-06T06:29:02;17.30;97.80
47779;DHT22;33538;48.432;11.350;2023-08-06T06:31:29;17.30;97.80
47779;DHT22;33538;48.432;11.350;2023-08-06T06:33:56;17.30;97.70
47779;DHT22;33538;48.432;11.350;2023-08-06T06:36:23;17.30;97.90
47779;DHT22;33538;48.432;11.350;2023-08-06T06:38:50;17.30;98.20
47779;DHT22;33538;48.432;11.350;2023-08-06T06:41:17;17.30;98.30
47779;DHT22;33538;48.432;11.350;2023-08-06T06:43:44;17.30;97.90
47779;DHT22;33538;48.432;11.350;2023-08-06T06:46:12;17.30;97.70
47779;DHT22;33538;48.432;11.350;2023-08-06T06:48:39;17.30;97.50
47779;DHT22;33538;48.432;11.350;2023-08-06T06:51:05;17.30;97.80
47779;DHT22;33538;48.432;11.350;2023-08-06T06:53:32;17.40;97.50
47779;DHT22;33538;48.432;11.350;2023-08-06T06:56:02;17.30;98.00
47779;DHT22;33538;48.432;11.350;2023-08-06T06:58:29;17.30;98.30
47779;DHT22;33538;48.432;11.350;2023-08-06T07:00:56;17.30;98.30
47779;DHT22;33538;48.432;11.350;2023-08-06T07:03:24;17.30;98.40
47779;DHT22;33538;48.432;11.350;2023-08-06T07:05:51;17.30;98.30
47779;DHT22;33538;48.432;11.350;2023-08-06T07:08:18;17.30;97.90
47779;DHT22;33538;48.432;11.350;2023-08-06T07:10:45;17.40;97.80
47779;DHT22;33538;48.432;11.350;2023-08-06T07:13:12;17.40;97.70
47779;DHT22;33538;48.432;11.350;2023-08-06T07:15:38;17.40;97.80
47779;DHT22;33538;48.432;11.350;2023-08-06T07:18:05;17.50;97.70
47779;DHT22;33538;48.432;11.350;2023-08-06T07:20:33;17.50;97.70
47779;DHT22;33538;48.432;11.350;2023-08-06T07:23:00;17.40;97.60
47779;DHT22;33538;48.432;11.350;2023-08-06T07:25:27;17.40;97.50
47779;DHT22;33538;48.432;11.350;2023-08-06T07:27:54;17.50;97.60
47779;DHT22;33538;48.432;11.350;2023-08-06T07:30:21;17.50;97.50
47779;DHT22;33538;48.432;11.350;2023-08-06T07:32:48;17.50;97.70
47779;DHT22;33538;48.432;11.350;2023-08-06T07:35:15;17.50;97.80
47779;DHT22;33538;48.432;11.350;2023-08-06T07:37:43;17.50;98.00
47779;DHT22;33538;48.432;11.350;2023-08-06T07:40:10;17.50;98.00
47779;DHT22;33538;48.432;11.350;2023-08-06T07:42:37;17.50;97.80
47779;DHT22;33538;48.432;11.350;2023-08-06T07:45:05;17.50;97.70
47779;DHT22;33538;48.432;11.350;2023-08-06T07:47:32;17.50;97.70
47779;DHT22;33538;48.432;11.350;2023-08-06T07:49:59;17.50;97.70
47779;DHT22;33538;48.432;11.350;2023-08-06T07:52:25;17.60;97.70
47779;DHT22;33538;48.432;11.350;2023-08-06T07:54:54;17.60;97.60
47779;DHT22;33538;48.432;11.350;2023-08-06T07:57:20;17.60;97.60
47779;DHT22;33538;48.432;11.350;2023-08-06T07:59:47;17.60;97.60
47779;DHT22;33538;48.432;11.350;2023-08-06T08:02:14;17.60;97.80
47779;DHT22;33538;48.432;11.350;2023-08-06T08:04:41;17.60;97.60
47779;DHT22;33538;48.432;11.350;2023-08-06T08:07:09;17.70;97.60
47779;DHT22;33538;48.432;11.350;2023-08-06T08:09:36;17.70;97.60
47779;DHT22;33538;48.432;11.350;2023-08-06T08:12:05;17.70;97.50
47779;DHT22;33538;48.432;11.350;2023-08-06T08:14:32;17.70;97.40
47779;DHT22;33538;48.432;11.350;2023-08-06T08:16:59;17.70;97.50
47779;DHT22;33538;48.432;11.350;2023-08-06T08:19:25;17.70;97.40
47779;DHT22;33538;48.432;11.350;2023-08-06T08:21:52;17.70;97.40
47779;DHT22;33538;48.432;11.350;2023-08-06T08:24:19;17.70;97.30
47779;DHT22;33538;48.432;11.350;2023-08-06T08:26:46;17.70;97.10
47779;DHT22;33538;48.432;11.350;2023-08-06T08:29:14;17.70;97.10
47779;DHT22;33538;48.432;11.350;2023-08-06T08:31:41;17.70;97.10
47779;DHT22;33538;48.432;11.350;2023-08-06T08:34:08;17.70;97.00
47779;DHT22;33538;48.432;11.350;2023-08-06T08:36:35;17.70;96.70
47779;DHT22;33538;48.432;11.350;2023-08-06T08:39:02;17.80;96.50
47779;DHT22;33538;48.432;11.350;2023-08-06T08:41:29;17.80;96.40
47779;DHT22;33538;48.432;11.350;2023-08-06T08:43:56;17.80;96.40
47779;DHT22;33538;48.432;11.350;2023-08-06T08:46:26;17.80;96.60
47779;DHT22;33538;48.432;11.350;2023-08-06T08:48:54;17.80;96.60
47779;DHT22;33538;48.432;11.350;2023-08-06T08:51:23;17.80;96.50
47779;DHT22;33538;48.432;11.350;2023-08-06T08:53:50;17.80;96.40
47779;DHT22;33538;48.432;11.350;2023-08-06T08:56:19;17.80;96.50
47779;DHT22;33538;48.432;11.350;2023-08-06T08:58:46;17.90;96.50
47779;DHT22;33538;48.432;11.350;2023-08-06T09:01:13;17.90;96.30
47779;DHT22;33538;48.432;11.350;2023-08-06T09:03:43;17.90;96.10
47779;DHT22;33538;48.432;11.350;2023-08-06T09:06:11;17.90;96.00
47779;DHT22;33538;48.432;11.350;2023-08-06T09:08:43;17.90;95.90
47779;DHT22;33538;48.432;11.350;2023-08-06T09:11:13;17.90;96.00
47779;DHT22;33538;48.432;11.350;2023-08-06T09:13:39;17.90;95.80
47779;DHT22;33538;48.432;11.350;2023-08-06T09:16:06;17.90;95.80
47779;DHT22;33538;48.432;11.350;2023-08-06T09:18:33;17.90;95.60
47779;DHT22;33538;48.432;11.350;2023-08-06T09:21:01;17.90;95.50
47779;DHT22;33538;48.432;11.350;2023-08-06T09:23:29;17.90;95.50
47779;DHT22;33538;48.432;11.350;2023-08-06T09:25:56;17.90;95.40
47779;DHT22;33538;48.432;11.350;2023-08-06T09:28:23;17.90;95.40
47779;DHT22;33538;48.432;11.350;2023-08-06T09:30:52;17.90;95.20
47779;DHT22;33538;48.432;11.350;2023-08-06T09:33:19;17.90;95.00
47779;DHT22;33538;48.432;11.350;2023-08-06T09:35:46;17.90;95.10
47779;DHT22;33538;48.432;11.350;2023-08-06T09:38:15;17.90;95.20
47779;DHT22;33538;48.432;11.350;2023-08-06T09:40:41;17.90;95.50
47779;DHT22;33538;48.432;11.350;2023-08-06T09:43:08;17.90;95.80
47779;DHT22;33538;48.432;11.350;2023-08-06T09:45:36;17.80;96.40
47779;DHT22;33538;48.432;11.350;2023-08-06T09:48:04;17.80;96.70
47779;DHT22;33538;48.432;11.350;2023-08-06T09:50:33;17.80;96.80
47779;DHT22;33538;48.432;11.350;2023-08-06T09:53:00;17.80;97.10
47779;DHT22;33538;48.432;11.350;2023-08-06T09:55:28;17.80;97.10
47779;DHT22;33538;48.432;11.350;2023-08-06T09:57:56;17.80;97.50
47779;DHT22;33538;48.432;11.350;2023-08-06T10:00:22;17.90;97.60
47779;DHT22;33538;48.432;11.350;2023-08-06T10:02:50;17.80;97.90
47779;DHT22;33538;48.432;11.350;2023-08-06T10:05:18;17.80;98.20
47779;DHT22;33538;48.432;11.350;2023-08-06T10:07:45;17.80;98.40
47779;DHT22;33538;48.432;11.350;2023-08-06T10:10:12;17.80;98.60
47779;DHT22;33538;48.432;11.350;2023-08-06T10:12:45;17.80;98.70
47779;DHT22;33538;48.432;11.350;2023-08-06T10:15:15;17.80;98.80
47779;DHT22;33538;48.432;11.350;2023-08-06T10:17:44;17.80;98.70
47779;DHT22;33538;48.432;11.350;2023-08-06T10:20:17;17.80;98.40
47779;DHT22;33538;48.432;11.350;2023-08-06T10:22:44;17.80;98.30
47779;DHT22;33538;48.432;11.350;2023-08-06T10:25:11;17.80;98.20
47779;DHT22;33538;48.432;11.350;2023-08-06T10:27:53;17.90;98.20
47779;DHT22;33538;48.432;11.350;2023-08-06T10:30:25;17.80;97.90
47779;DHT22;33538;48.432;11.350;2023-08-06T10:32:53;17.90;97.60
47779;DHT22;33538;48.432;11.350;2023-08-06T10:35:36;17.90;97.50
47779;DHT22;33538;48.432;11.350;2023-08-06T10:38:08;17.90;97.40
47779;DHT22;33538;48.432;11.350;2023-08-06T10:40:36;17.90;97.20
47779;DHT22;33538;48.432;11.350;2023-08-06T10:43:05;17.90;97.40
47779;DHT22;33538;48.432;11.350;2023-08-06T10:45:35;18.00;97.40
47779;DHT22;33538;48.432;11.350;2023-08-06T10:48:02;18.00;97.30
47779;DHT22;33538;48.432;11.350;2023-08-06T10:50:30;18.00;97.30
47779;DHT22;33538;48.432;11.350;2023-08-06T10:52:58;18.00;97.20
47779;DHT22;33538;48.432;11.350;2023-08-06T10:55:30;18.00;97.10
47779;DHT22;33538;48.432;11.350;2023-08-06T10:57:58;18.00;97.00
47779;DHT22;33538;48.432;11.350;2023-08-06T11:00:26;18.00;96.80
47779;DHT22;33538;48.432;11.350;2023-08-06T11:02:53;17.90;96.70
47779;DHT22;33538;48.432;11.350;2023-08-06T11:05:20;18.00;96.70
47779;DHT22;33538;48.432;11.350;2023-08-06T11:07:48;18.00;96.60
47779;DHT22;33538;48.432;11.350;2023-08-06T11:10:15;18.00;96.60
47779;DHT22;33538;48.432;11.350;2023-08-06T11:12:42;18.00;96.50
47779;DHT22;33538;48.432;11.350;2023-08-06T11:15:10;18.00;96.60
47779;DHT22;33538;48.432;11.350;2023-08-06T11:17:40;18.00;96.40
47779;DHT22;33538;48.432;11.350;2023-08-06T11:20:08;18.00;96.30
47779;DHT22;33538;48.432;11.350;2023-08-06T11:22:36;17.90;96.20
47779;DHT22;33538;48.432;11.350;2023-08-06T11:25:04;17.90;96.50
47779;DHT22;33538;48.432;11.350;2023-08-06T11:27:31;17.90;96.50
47779;DHT22;33538;48.432;11.350;2023-08-06T11:29:58;17.90;96.60
47779;DHT22;33538;48.432;11.350;2023-08-06T11:32:25;17.90;96.50
47779;DHT22;33538;48.432;11.350;2023-08-06T11:34:54;17.90;96.40
47779;DHT22;33538;48.432;11.350;2023-08-06T11:37:21;17.90;96.20
47779;DHT22;33538;48.432;11.350;2023-08-06T11:39:49;17.90;96.20
47779;DHT22;33538;48.432;11.350;2023-08-06T11:42:16;17.90;96.10
47779;DHT22;33538;48.432;11.350;2023-08-06T11:44:43;17.90;95.70
47779;DHT22;33538;48.432;11.350;2023-08-06T11:47:13;17.90;95.50
47779;DHT22;33538;48.432;11.350;2023-08-06T11:49:41;17.80;95.10
47779;DHT22;33538;48.432;11.350;2023-08-06T11:52:12;17.80;95.00
47779;DHT22;33538;48.432;11.350;2023-08-06T11:54:39;17.90;95.00
47779;DHT22;33538;48.432;11.350;2023-08-06T11:57:06;17.90;94.90
47779;DHT22;33538;48.432;11.350;2023-08-06T11:59:33;17.90;94.90
47779;DHT22;33538;48.432;11.350;2023-08-06T12:02:02;17.90;94.70
47779;DHT22;33538;48.432;11.350;2023-08-06T12:04:29;17.90;94.70
47779;DHT22;33538;48.432;11.350;2023-08-06T12:07:04;17.90;94.80
47779;DHT22;33538;48.432;11.350;2023-08-06T12:09:33;17.90;94.70
47779;DHT22;33538;48.432;11.350;2023-08-06T12:12:00;18.00;94.80
47779;DHT22;33538;48.432;11.350;2023-08-06T12:14:26;18.00;94.70
47779;DHT22;33538;48.432;11.350;2023-08-06T12:16:53;17.90;94.50
47779;DHT22;33538;48.432;11.350;2023-08-06T12:19:20;18.00;94.50
47779;DHT22;33538;48.432;11.350;2023-08-06T12:21:47;18.00;94.60
47779;DHT22;33538;48.432;11.350;2023-08-06T12:24:13;18.00;94.60
47779;DHT22;33538;48.432;11.350;2023-08-06T12:26:42;18.00;94.50
47779;DHT22;33538;48.432;11.350;2023-08-06T12:29:08;18.00;94.30
47779;DHT22;33538;48.432;11.350;2023-08-06T12:31:35;18.00;94.30
47779;DHT22;33538;48.432;11.350;2023-08-06T12:34:02;18.00;94.30
47779;DHT22;33538;48.432;11.350;2023-08-06T12:36:29;18.00;94.30
47779;DHT22;33538;48.432;11.350;2023-08-06T12:38:56;18.00;94.40
47779;DHT22;33538;48.432;11.350;2023-08-06T12:41:22;18.00;94.40
47779;DHT22;33538;48.432;11.350;2023-08-06T12:43:51;18.00;94.60
47779;DHT22;33538;48.432;11.350;2023-08-06T12:46:17;18.00;94.50
47779;DHT22;33538;48.432;11.350;2023-08-06T12:48:44;18.10;94.50
47779;DHT22;33538;48.432;11.350;2023-08-06T12:51:11;18.10;94.50
47779;DHT22;33538;48.432;11.350;2023-08-06T12:53:38;18.00;94.40
47779;DHT22;33538;48.432;11.350;2023-08-06T12:56:05;18.00;94.20
47779;DHT22;33538;48.432;11.350;2023-08-06T12:58:32;18.00;94.00
47779;DHT22;33538;48.432;11.350;2023-08-06T13:01:00;18.00;93.80
47779;DHT22;33538;48.432;11.350;2023-08-06T13:03:27;18.00;93.70
47779;DHT22;33538;48.432;11.350;2023-08-06T13:05:57;18.00;93.60
47779;DHT22;33538;48.432;11.350;2023-08-06T13:08:23;18.00;93.60
47779;DHT22;33538;48.432;11.350;2023-08-06T13:10:50;18.00;93.50
47779;DHT22;33538;48.432;11.350;2023-08-06T13:13:17;18.00;93.50
47779;DHT22;33538;48.432;11.350;2023-08-06T13:15:44;18.00;93.50
47779;DHT22;33538;48.432;11.350;2023-08-06T13:18:12;18.00;93.60
47779;DHT22;33538;48.432;11.350;2023-08-06T13:20:39;18.10;93.70
47779;DHT22;33538;48.432;11.350;2023-08-06T13:23:06;18.10;93.80
47779;DHT22;33538;48.432;11.350;2023-08-06T13:25:33;18.00;93.80
47779;DHT22;33538;48.432;11.350;2023-08-06T13:27:59;18.10;93.80
47779;DHT22;33538;48.432;11.350;2023-08-06T13:30:26;18.00;93.90
47779;DHT22;33538;48.432;11.350;2023-08-06T13:32:53;18.10;93.90
47779;DHT22;33538;48.432;11.350;2023-08-06T13:35:21;18.00;94.10
47779;DHT22;33538;48.432;11.350;2023-08-06T13:37:48;18.00;94.50
47779;DHT22;33538;48.432;11.350;2023-08-06T13:40:15;18.00;94.60
47779;DHT22;33538;48.432;11.350;2023-08-06T13:42:42;18.00;94.70
47779;DHT22;33538;48.432;11.350;2023-08-06T13:45:09;18.00;94.60
47779;DHT22;33538;48.432;11.350;2023-08-06T13:47:36;18.00;94.80
47779;DHT22;33538;48.432;11.350;2023-08-06T13:50:04;18.00;94.90
47779;DHT22;33538;48.432;11.350;2023-08-06T13:52:32;18.00;95.00
47779;DHT22;33538;48.432;11.350;2023-08-06T13:54:59;18.00;95.00
47779;DHT22;33538;48.432;11.350;2023-08-06T13:57:26;18.00;95.10
47779;DHT22;33538;48.432;11.350;2023-08-06T13:59:52;18.00;95.10
47779;DHT22;33538;48.432;11.350;2023-08-06T14:02:19;18.00;95.60
47779;DHT22;33538;48.432;11.350;2023-08-06T14:04:46;17.90;95.40
47779;DHT22;33538;48.432;11.350;2023-08-06T14:07:13;18.00;95.60
47779;DHT22;33538;48.432;11.350;2023-08-06T14:09:41;18.00;95.70
47779;DHT22;33538;48.432;11.350;2023-08-06T14:12:08;17.90;95.90
47779;DHT22;33538;48.432;11.350;2023-08-06T14:14:35;17.90;96.80
47779;DHT22;33538;48.432;11.350;2023-08-06T14:17:02;17.90;96.80
47779;DHT22;33538;48.432;11.350;2023-08-06T14:19:29;17.90;97.00
47779;DHT22;33538;48.432;11.350;2023-08-06T14:21:56;17.80;97.10
47779;DHT22;33538;48.432;11.350;2023-08-06T14:24:23;17.80;97.10
47779;DHT22;33538;48.432;11.350;2023-08-06T14:26:51;17.80;97.30
47779;DHT22;33538;48.432;11.350;2023-08-06T14:29:18;17.80;97.30
47779;DHT22;33538;48.432;11.350;2023-08-06T14:31:45;17.80;97.50
47779;DHT22;33538;48.432;11.350;2023-08-06T14:34:12;17.80;97.60
47779;DHT22;33538;48.432;11.350;2023-08-06T14:36:39;17.80;97.60
47779;DHT22;33538;48.432;11.350;2023-08-06T14:39:06;17.70;97.80
47779;DHT22;33538;48.432;11.350;2023-08-06T14:41:32;17.70;97.70
47779;DHT22;33538;48.432;11.350;2023-08-06T14:44:00;17.70;97.50
47779;DHT22;33538;48.432;11.350;2023-08-06T14:46:27;17.70;97.40
47779;DHT22;33538;48.432;11.350;2023-08-06T14:48:54;17.70;97.40
47779;DHT22;33538;48.432;11.350;2023-08-06T14:51:21;17.60;97.50
47779;DHT22;33538;48.432;11.350;2023-08-06T14:53:48;17.60;97.40
47779;DHT22;33538;48.432;11.350;2023-08-06T14:56:14;17.70;97.00
47779;DHT22;33538;48.432;11.350;2023-08-06T14:58:41;17.60;96.60
47779;DHT22;33538;48.432;11.350;2023-08-06T15:01:10;17.60;96.50
47779;DHT22;33538;48.432;11.350;2023-08-06T15:03:37;17.60;96.60
47779;DHT22;33538;48.432;11.350;2023-08-06T15:06:03;17.60;96.70
47779;DHT22;33538;48.432;11.350;2023-08-06T15:08:30;17.50;96.80
47779;DHT22;33538;48.432;11.350;2023-08-06T15:10:57;17.50;97.00
47779;DHT22;33538;48.432;11.350;2023-08-06T15:13:24;17.50;97.10
47779;DHT22;33538;48.432;11.350;2023-08-06T15:15:50;17.50;97.40